sensor_id;sensor_type;location;lat;lon;timestamp;pressure;altitude;pressure_sealevel;temperature;humidity
50250;BME280;36133;42.522;27.456;2023-05-01T00:02:27;101241.53;;;14.30;57.87
50250;BME280;36133;42.522;27.456;2023-05-01T00:04:55;100964.53;;;13.13;56.18
50250;BME280;36133;42.522;27.456;2023-05-01T00:07:21;101248.31;;;14.89;55.84
50250;BME280;36133;42.522;27.456;2023-05-01T00:09:46;101260.09;;;14.55;56.81
50250;BME280;36133;42.522;27.456;2023-05-01T00:12:12;101077.88;;;13.03;58.21
50250;BME280;36133;42.522;27.456;2023-05-01T00:14:37;101208.50;;;13.71;58.21
50250;BME280;36133;42.522;27.456;2023-05-01T00:17:03;101232.16;;;13.34;60.13
50250;BME280;36133;42.522;27.456;2023-05-01T00:19:29;101230.25;;;13.56;58.66
50250;BME280;36133;42.522;27.456;2023-05-01T00:21:54;101063.72;;;11.93;59.98
50250;BME280;36133;42.522;27.456;2023-05-01T00:24:20;101261.94;;;14.26;57.70
50250;BME280;36133;42.522;27.456;2023-05-01T00:26:46;101247.91;;;14.85;55.42
50250;BME280;36133;42.522;27.456;2023-05-01T00:29:12;101204.72;;;14.28;55.65
50250;BME280;36133;42.522;27.456;2023-05-01T00:31:37;101258.25;;;15.10;54.97
50250;BME280;36133;42.522;27.456;2023-05-01T00:34:03;101142.97;;;14.43;54.56
50250;BME280;36133;42.522;27.456;2023-05-01T00:36:29;101259.63;;;14.23;55.81
50250;BME280;36133;42.522;27.456;2023-05-01T00:38:56;101250.75;;;14.08;56.38
50250;BME280;36133;42.522;27.456;2023-05-01T00:41:21;101233.50;;;14.50;54.75
50250;BME280;36133;42.522;27.456;2023-05-01T00:43:47;101241.84;;;14.90;54.37
50250;BME280;36133;42.522;27.456;2023-05-01T00:46:12;101253.94;;;13.90;56.71
50250;BME280;36133;42.522;27.456;2023-05-01T00:48:38;101254.88;;;13.55;57.75
50250;BME280;36133;42.522;27.456;2023-05-01T00:51:04;101220.53;;;12.53;60.09
50250;BME280;36133;42.522;27.456;2023-05-01T00:53:35;101209.75;;;13.26;58.51
50250;BME280;36133;42.522;27.456;2023-05-01T00:56:01;101231.81;;;13.65;58.28
50250;BME280;36133;42.522;27.456;2023-05-01T00:58:26;101218.25;;;13.65;57.56
50250;BME280;36133;42.522;27.456;2023-05-01T01:00:53;101216.31;;;13.59;58.32
50250;BME280;36133;42.522;27.456;2023-05-01T01:03:19;101238.75;;;13.10;60.23
50250;BME280;36133;42.522;27.456;2023-05-01T01:05:56;101153.22;;;12.06;62.37
50250;BME280;36133;42.522;27.456;2023-05-01T01:08:28;101270.69;;;13.30;61.86
50250;BME280;36133;42.522;27.456;2023-05-01T01:13:51;101271.94;;;14.19;58.93
50250;BME280;36133;42.522;27.456;2023-05-01T01:16:45;101282.06;;;14.32;59.27
50250;BME280;36133;42.522;27.456;2023-05-01T01:19:40;101280.53;;;14.23;58.73
50250;BME280;36133;42.522;27.456;2023-05-01T01:22:19;101260.56;;;13.81;59.85
50250;BME280;36133;42.522;27.456;2023-05-01T01:35:20;101240.56;;;13.89;58.34
50250;BME280;36133;42.522;27.456;2023-05-01T01:40:26;101281.59;;;14.00;59.54
50250;BME280;36133;42.522;27.456;2023-05-01T01:43:13;101145.91;;;12.87;60.81
50250;BME280;36133;42.522;27.456;2023-05-01T01:45:42;101251.59;;;14.08;58.76
50250;BME280;36133;42.522;27.456;2023-05-01T01:48:14;101282.53;;;14.14;58.92
50250;BME280;36133;42.522;27.456;2023-05-01T01:50:42;101291.66;;;13.57;61.17
50250;BME280;36133;42.522;27.456;2023-05-01T01:53:12;101294.25;;;13.29;61.91
50250;BME280;36133;42.522;27.456;2023-05-01T01:55:40;101284.13;;;12.57;63.17
50250;BME280;36133;42.522;27.456;2023-05-01T01:58:08;101262.16;;;12.82;62.67
50250;BME280;36133;42.522;27.456;2023-05-01T02:00:35;101261.88;;;12.47;63.55
50250;BME280;36133;42.522;27.456;2023-05-01T02:03:02;101223.50;;;12.29;64.39
50250;BME280;36133;42.522;27.456;2023-05-01T02:05:29;101297.56;;;12.36;65.35
50250;BME280;36133;42.522;27.456;2023-05-01T02:07:56;101299.38;;;12.73;64.73
50250;BME280;36133;42.522;27.456;2023-05-01T02:10:23;101230.69;;;12.07;65.08
50250;BME280;36133;42.522;27.456;2023-05-01T02:12:50;101254.81;;;11.94;65.66
50250;BME280;36133;42.522;27.456;2023-05-01T02:15:18;101317.47;;;12.58;64.95
50250;BME280;36133;42.522;27.456;2023-05-01T02:17:45;101286.59;;;12.00;65.79
50250;BME280;36133;42.522;27.456;2023-05-01T02:20:11;101292.47;;;11.58;66.38
50250;BME280;36133;42.522;27.456;2023-05-01T02:22:43;101265.78;;;11.55;67.52
50250;BME280;36133;42.522;27.456;2023-05-01T02:25:11;101307.94;;;11.95;67.40
50250;BME280;36133;42.522;27.456;2023-05-01T02:27:39;101075.66;;;10.48;68.15
50250;BME280;36133;42.522;27.456;2023-05-01T02:30:08;101139.69;;;11.16;67.43
50250;BME280;36133;42.522;27.456;2023-05-01T02:32:34;101207.72;;;11.42;67.85
50250;BME280;36133;42.522;27.456;2023-05-01T02:35:00;101304.50;;;11.78;68.81
50250;BME280;36133;42.522;27.456;2023-05-01T02:37:26;101232.34;;;11.25;68.83
50250;BME280;36133;42.522;27.456;2023-05-01T02:39:52;101332.97;;;11.66;69.42
50250;BME280;36133;42.522;27.456;2023-05-01T02:42:19;101191.50;;;11.20;68.35
50250;BME280;36133;42.522;27.456;2023-05-01T02:44:55;101194.97;;;10.82;69.11
50250;BME280;36133;42.522;27.456;2023-05-01T02:47:22;100967.88;;;9.84;67.69
50250;BME280;36133;42.522;27.456;2023-05-01T02:49:50;101329.38;;;11.96;67.60
50250;BME280;36133;42.522;27.456;2023-05-01T02:52:18;101280.00;;;11.49;66.89
50250;BME280;36133;42.522;27.456;2023-05-01T02:54:45;101349.19;;;11.97;66.50
50250;BME280;36133;42.522;27.456;2023-05-01T02:57:11;101344.81;;;11.65;67.71
50250;BME280;36133;42.522;27.456;2023-05-01T02:59:37;101127.63;;;10.50;67.43
50250;BME280;36133;42.522;27.456;2023-05-01T03:02:03;101340.91;;;11.67;67.66
50250;BME280;36133;42.522;27.456;2023-05-01T03:04:28;101349.28;;;11.50;68.64
50250;BME280;36133;42.522;27.456;2023-05-01T03:06:54;101317.34;;;11.22;68.96
50250;BME280;36133;42.522;27.456;2023-05-01T03:09:21;101330.72;;;11.47;68.60
50250;BME280;36133;42.522;27.456;2023-05-01T03:11:47;101328.31;;;11.29;69.30
50250;BME280;36133;42.522;27.456;2023-05-01T03:14:12;101321.78;;;11.46;69.13
50250;BME280;36133;42.522;27.456;2023-05-01T03:16:38;101277.63;;;11.23;69.31
50250;BME280;36133;42.522;27.456;2023-05-01T03:19:04;101274.06;;;11.53;68.07
50250;BME280;36133;42.522;27.456;2023-05-01T03:21:30;101131.72;;;11.75;64.69
50250;BME280;36133;42.522;27.456;2023-05-01T03:23:57;101374.53;;;13.60;62.33
50250;BME280;36133;42.522;27.456;2023-05-01T03:26:22;101355.09;;;13.99;61.06
50250;BME280;36133;42.522;27.456;2023-05-01T03:28:48;101393.22;;;13.33;62.05
50250;BME280;36133;42.522;27.456;2023-05-01T03:31:13;101332.75;;;11.98;64.31
50250;BME280;36133;42.522;27.456;2023-05-01T03:33:39;101219.72;;;11.63;63.39
50250;BME280;36133;42.522;27.456;2023-05-01T03:36:05;101333.94;;;12.19;63.87
50250;BME280;36133;42.522;27.456;2023-05-01T03:38:32;101369.53;;;12.83;62.59
50250;BME280;36133;42.522;27.456;2023-05-01T03:40:58;101390.66;;;14.47;58.52
50250;BME280;36133;42.522;27.456;2023-05-01T03:43:24;101335.56;;;13.67;57.74
50250;BME280;36133;42.522;27.456;2023-05-01T03:45:51;101204.09;;;12.25;59.55
50250;BME280;36133;42.522;27.456;2023-05-01T03:48:20;101196.19;;;12.24;60.45
50250;BME280;36133;42.522;27.456;2023-05-01T03:50:46;100821.19;;;9.71;60.21
50250;BME280;36133;42.522;27.456;2023-05-01T03:53:12;101408.84;;;12.64;62.77
50250;BME280;36133;42.522;27.456;2023-05-01T03:55:38;101197.81;;;11.95;61.23
50250;BME280;36133;42.522;27.456;2023-05-01T03:58:05;101355.84;;;13.50;59.56
50250;BME280;36133;42.522;27.456;2023-05-01T04:00:31;101408.38;;;14.21;58.93
50250;BME280;36133;42.522;27.456;2023-05-01T04:02:57;101385.44;;;14.45;57.96
50250;BME280;36133;42.522;27.456;2023-05-01T04:05:22;101407.34;;;14.44;57.86
50250;BME280;36133;42.522;27.456;2023-05-01T04:07:48;101320.97;;;13.68;58.68
50250;BME280;36133;42.522;27.456;2023-05-01T04:10:13;101391.69;;;14.46;58.46
50250;BME280;36133;42.522;27.456;2023-05-01T04:12:39;101331.81;;;14.11;58.82
50250;BME280;36133;42.522;27.456;2023-05-01T04:15:05;101374.94;;;14.21;59.52
50250;BME280;36133;42.522;27.456;2023-05-01T04:17:31;101276.75;;;13.32;59.52
50250;BME280;36133;42.522;27.456;2023-05-01T04:19:57;101314.44;;;13.63;59.19
50250;BME280;36133;42.522;27.456;2023-05-01T04:22:23;101381.34;;;13.92;58.16
50250;BME280;36133;42.522;27.456;2023-05-01T04:24:48;101343.41;;;13.98;57.34
50250;BME280;36133;42.522;27.456;2023-05-01T04:27:14;101320.91;;;14.54;55.31
50250;BME280;36133;42.522;27.456;2023-05-01T04:29:40;101450.38;;;15.24;55.29
50250;BME280;36133;42.522;27.456;2023-05-01T04:32:06;101232.44;;;15.67;51.65
50250;BME280;36133;42.522;27.456;2023-05-01T04:34:32;101168.25;;;16.37;49.01
50250;BME280;36133;42.522;27.456;2023-05-01T04:36:57;101444.88;;;17.45;50.29
50250;BME280;36133;42.522;27.456;2023-05-01T04:39:23;101287.97;;;16.05;50.48
50250;BME280;36133;42.522;27.456;2023-05-01T04:41:48;101402.84;;;16.49;51.97
50250;BME280;36133;42.522;27.456;2023-05-01T04:44:14;101440.34;;;18.47;48.53
50250;BME280;36133;42.522;27.456;2023-05-01T04:46:40;101250.75;;;17.60;47.29
50250;BME280;36133;42.522;27.456;2023-05-01T04:49:06;101115.22;;;17.66;46.38
50250;BME280;36133;42.522;27.456;2023-05-01T04:51:32;101181.97;;;18.20;46.04
50250;BME280;36133;42.522;27.456;2023-05-01T04:53:58;101016.09;;;18.20;43.43
50250;BME280;36133;42.522;27.456;2023-05-01T04:56:24;101279.22;;;20.32;41.83
50250;BME280;36133;42.522;27.456;2023-05-01T04:58:49;101469.63;;;20.66;43.31
50250;BME280;36133;42.522;27.456;2023-05-01T05:01:15;101340.69;;;19.41;43.72
50250;BME280;36133;42.522;27.456;2023-05-01T05:03:41;101409.47;;;19.51;43.88
50250;BME280;36133;42.522;27.456;2023-05-01T05:06:07;101458.97;;;20.46;43.23
50250;BME280;36133;42.522;27.456;2023-05-01T05:08:32;101485.59;;;20.69;42.89
50250;BME280;36133;42.522;27.456;2023-05-01T05:11:00;101448.50;;;20.55;42.50
50250;BME280;36133;42.522;27.456;2023-05-01T05:13:26;101407.50;;;20.60;42.94
50250;BME280;36133;42.522;27.456;2023-05-01T05:15:52;101407.25;;;19.60;44.14
50250;BME280;36133;42.522;27.456;2023-05-01T05:18:18;101492.25;;;21.27;42.28
50250;BME280;36133;42.522;27.456;2023-05-01T05:20:44;101447.00;;;20.41;42.91
50250;BME280;36133;42.522;27.456;2023-05-01T05:23:09;101412.88;;;18.04;47.37
50250;BME280;36133;42.522;27.456;2023-05-01T05:25:35;101354.19;;;17.37;48.13
50250;BME280;36133;42.522;27.456;2023-05-01T05:28:00;101503.41;;;17.63;49.84
50250;BME280;36133;42.522;27.456;2023-05-01T05:30:26;101504.72;;;18.11;49.52
50250;BME280;36133;42.522;27.456;2023-05-01T05:32:52;101469.50;;;17.25;50.29
50250;BME280;36133;42.522;27.456;2023-05-01T05:35:17;101375.13;;;16.32;51.57
50250;BME280;36133;42.522;27.456;2023-05-01T05:37:43;100958.84;;;14.38;50.58
50250;BME280;36133;42.522;27.456;2023-05-01T05:40:09;101500.28;;;18.49;48.89
50250;BME280;36133;42.522;27.456;2023-05-01T05:42:35;101512.91;;;18.81;47.66
50250;BME280;36133;42.522;27.456;2023-05-01T05:45:00;101505.38;;;20.30;45.59
50250;BME280;36133;42.522;27.456;2023-05-01T05:47:26;101310.31;;;18.94;45.52
50250;BME280;36133;42.522;27.456;2023-05-01T05:49:51;101507.81;;;19.53;47.29
50250;BME280;36133;42.522;27.456;2023-05-01T05:52:19;101473.44;;;19.14;47.04
50250;BME280;36133;42.522;27.456;2023-05-01T05:54:45;101454.34;;;19.87;45.27
50250;BME280;36133;42.522;27.456;2023-05-01T05:57:11;101534.06;;;20.75;44.06
50250;BME280;36133;42.522;27.456;2023-05-01T05:59:36;101523.13;;;20.99;43.84
50250;BME280;36133;42.522;27.456;2023-05-01T06:02:02;101539.19;;;21.37;43.13
50250;BME280;36133;42.522;27.456;2023-05-01T06:04:28;101420.91;;;20.08;44.32
50250;BME280;36133;42.522;27.456;2023-05-01T06:06:53;101462.84;;;21.16;43.16
50250;BME280;36133;42.522;27.456;2023-05-01T06:09:19;101548.56;;;22.85;39.79
50250;BME280;36133;42.522;27.456;2023-05-01T06:11:44;101541.97;;;23.36;39.49
50250;BME280;36133;42.522;27.456;2023-05-01T06:14:10;101543.41;;;23.39;39.11
50250;BME280;36133;42.522;27.456;2023-05-01T06:16:36;101354.88;;;22.07;38.26
50250;BME280;36133;42.522;27.456;2023-05-01T06:19:02;101366.25;;;23.00;37.38
50250;BME280;36133;42.522;27.456;2023-05-01T06:21:28;101538.22;;;24.25;37.15
50250;BME280;36133;42.522;27.456;2023-05-01T06:23:53;101534.81;;;24.18;37.41
50250;BME280;36133;42.522;27.456;2023-05-01T06:26:19;101556.53;;;22.70;39.79
50250;BME280;36133;42.522;27.456;2023-05-01T06:28:48;101462.38;;;20.84;42.96
50250;BME280;36133;42.522;27.456;2023-05-01T06:31:14;101354.84;;;19.01;45.64
50250;BME280;36133;42.522;27.456;2023-05-01T06:33:40;101449.19;;;17.66;49.95
50250;BME280;36133;42.522;27.456;2023-05-01T06:36:06;101352.94;;;16.75;50.79
50250;BME280;36133;42.522;27.456;2023-05-01T06:38:47;101362.94;;;16.94;51.29
50250;BME280;36133;42.522;27.456;2023-05-01T06:41:16;101279.72;;;16.72;50.29
50250;BME280;36133;42.522;27.456;2023-05-01T06:43:42;101341.63;;;17.74;50.27
50250;BME280;36133;42.522;27.456;2023-05-01T06:46:07;101050.19;;;17.38;46.36
50250;BME280;36133;42.522;27.456;2023-05-01T06:48:33;101560.75;;;22.89;42.48
50250;BME280;36133;42.522;27.456;2023-05-01T06:50:59;101418.28;;;21.60;43.34
50250;BME280;36133;42.522;27.456;2023-05-01T06:53:25;101391.28;;;22.98;39.46
50250;BME280;36133;42.522;27.456;2023-05-01T06:55:51;101357.41;;;24.17;37.33
50250;BME280;36133;42.522;27.456;2023-05-01T06:58:24;101453.63;;;26.10;34.08
50250;BME280;36133;42.522;27.456;2023-05-01T07:00:52;101585.31;;;24.94;37.22
50250;BME280;36133;42.522;27.456;2023-05-01T07:03:18;101078.78;;;21.02;37.51
50250;BME280;36133;42.522;27.456;2023-05-01T07:05:47;101335.13;;;23.21;37.57
50250;BME280;36133;42.522;27.456;2023-05-01T07:08:12;101377.38;;;23.27;37.86
50250;BME280;36133;42.522;27.456;2023-05-01T07:10:38;101211.28;;;23.04;35.95
50250;BME280;36133;42.522;27.456;2023-05-01T07:13:07;101131.84;;;22.91;35.20
50250;BME280;36133;42.522;27.456;2023-05-01T07:15:32;101459.53;;;24.81;34.84
50250;BME280;36133;42.522;27.456;2023-05-01T07:17:58;101347.13;;;26.43;31.21
50250;BME280;36133;42.522;27.456;2023-05-01T07:20:25;101211.38;;;25.00;32.39
50250;BME280;36133;42.522;27.456;2023-05-01T07:22:50;101180.59;;;23.77;34.15
50250;BME280;36133;42.522;27.456;2023-05-01T07:25:16;101105.13;;;22.21;36.25
50250;BME280;36133;42.522;27.456;2023-05-01T07:27:42;101557.03;;;26.97;33.48
50250;BME280;36133;42.522;27.456;2023-05-01T07:30:08;101463.53;;;27.58;30.29
50250;BME280;36133;42.522;27.456;2023-05-01T07:32:34;101609.38;;;31.33;26.05
50250;BME280;36133;42.522;27.456;2023-05-01T07:35:00;101599.00;;;32.98;23.26
50250;BME280;36133;42.522;27.456;2023-05-01T07:37:29;101610.69;;;34.07;21.93
50250;BME280;36133;42.522;27.456;2023-05-01T07:39:57;101359.91;;;32.56;21.89
50250;BME280;36133;42.522;27.456;2023-05-01T07:42:23;101609.03;;;35.15;20.89
50250;BME280;36133;42.522;27.456;2023-05-01T07:44:54;101474.81;;;33.70;21.48
50250;BME280;36133;42.522;27.456;2023-05-01T07:47:19;101344.53;;;34.33;19.70
50250;BME280;36133;42.522;27.456;2023-05-01T07:49:45;101565.00;;;33.98;20.66
50250;BME280;36133;42.522;27.456;2023-05-01T07:52:11;101623.03;;;34.54;21.04
50250;BME280;36133;42.522;27.456;2023-05-01T07:54:37;101364.50;;;32.52;21.10
50250;BME280;36133;42.522;27.456;2023-05-01T07:57:05;101463.44;;;30.21;24.34
50250;BME280;36133;42.522;27.456;2023-05-01T07:59:31;101178.16;;;27.57;26.13
50250;BME280;36133;42.522;27.456;2023-05-01T08:01:56;101331.81;;;28.92;25.37
50250;BME280;36133;42.522;27.456;2023-05-01T08:04:22;101239.44;;;31.23;22.13
50250;BME280;36133;42.522;27.456;2023-05-01T08:06:49;101352.72;;;30.31;20.03
50250;BME280;36133;42.522;27.456;2023-05-01T08:09:15;101563.63;;;33.47;17.83
50250;BME280;36133;42.522;27.456;2023-05-01T08:11:41;101654.16;;;30.23;21.46
50250;BME280;36133;42.522;27.456;2023-05-01T08:14:09;101653.03;;;32.57;18.82
50250;BME280;36133;42.522;27.456;2023-05-01T08:16:35;101434.03;;;32.53;17.84
50250;BME280;36133;42.522;27.456;2023-05-01T08:19:01;101657.78;;;33.74;17.93
50250;BME280;36133;42.522;27.456;2023-05-01T08:21:28;101669.66;;;33.71;17.64
50250;BME280;36133;42.522;27.456;2023-05-01T08:23:54;101479.53;;;31.68;18.48
50250;BME280;36133;42.522;27.456;2023-05-01T08:26:21;101674.25;;;29.28;21.68
50250;BME280;36133;42.522;27.456;2023-05-01T08:28:47;101650.13;;;30.96;19.81
50250;BME280;36133;42.522;27.456;2023-05-01T08:31:13;101640.75;;;31.90;19.41
50250;BME280;36133;42.522;27.456;2023-05-01T08:33:38;101484.06;;;31.91;18.17
50250;BME280;36133;42.522;27.456;2023-05-01T08:36:09;101400.69;;;31.62;17.65
50250;BME280;36133;42.522;27.456;2023-05-01T08:38:38;101675.22;;;30.96;20.01
50250;BME280;36133;42.522;27.456;2023-05-01T08:41:04;101298.25;;;29.31;18.76
50250;BME280;36133;42.522;27.456;2023-05-01T08:43:32;101237.59;;;26.91;20.82
50250;BME280;36133;42.522;27.456;2023-05-01T08:46:01;101278.72;;;25.77;19.47
50250;BME280;36133;42.522;27.456;2023-05-01T08:48:34;101506.06;;;30.91;18.17
50250;BME280;36133;42.522;27.456;2023-05-01T08:51:03;101520.38;;;33.00;15.95
50250;BME280;36133;42.522;27.456;2023-05-01T08:53:31;101274.31;;;29.73;16.92
50250;BME280;36133;42.522;27.456;2023-05-01T08:55:58;101247.75;;;29.81;16.53
50250;BME280;36133;42.522;27.456;2023-05-01T08:58:25;101365.47;;;31.39;15.81
50250;BME280;36133;42.522;27.456;2023-05-01T09:00:53;101674.19;;;33.58;15.81
50250;BME280;36133;42.522;27.456;2023-05-01T09:03:32;101232.03;;;30.36;16.20
50250;BME280;36133;42.522;27.456;2023-05-01T09:05:59;101542.06;;;31.67;17.05
50250;BME280;36133;42.522;27.456;2023-05-01T09:08:30;101638.44;;;30.75;16.84
50250;BME280;36133;42.522;27.456;2023-05-01T09:10:58;101521.63;;;29.98;17.11
50250;BME280;36133;42.522;27.456;2023-05-01T09:13:31;101220.88;;;27.11;18.22
50250;BME280;36133;42.522;27.456;2023-05-01T09:16:07;101319.19;;;28.18;17.47
50250;BME280;36133;42.522;27.456;2023-05-01T09:18:33;101674.75;;;30.70;17.16
50250;BME280;36133;42.522;27.456;2023-05-01T09:20:59;101579.84;;;29.42;17.54
50250;BME280;36133;42.522;27.456;2023-05-01T09:23:26;101181.03;;;26.33;18.74
50250;BME280;36133;42.522;27.456;2023-05-01T09:25:52;101672.47;;;32.76;16.50
50250;BME280;36133;42.522;27.456;2023-05-01T09:28:44;101230.75;;;31.61;14.71
50250;BME280;36133;42.522;27.456;2023-05-01T09:31:26;101263.41;;;32.27;14.31
50250;BME280;36133;42.522;27.456;2023-05-01T09:34:04;101517.56;;;33.93;13.73
50250;BME280;36133;42.522;27.456;2023-05-01T09:36:35;101334.00;;;33.61;13.66
50250;BME280;36133;42.522;27.456;2023-05-01T09:39:04;101623.41;;;33.82;14.17
50250;BME280;36133;42.522;27.456;2023-05-01T09:41:32;101266.63;;;34.00;13.17
50250;BME280;36133;42.522;27.456;2023-05-01T09:43:58;101301.06;;;35.33;12.63
50250;BME280;36133;42.522;27.456;2023-05-01T09:46:25;101590.81;;;38.22;11.96
50250;BME280;36133;42.522;27.456;2023-05-01T09:48:58;101392.38;;;35.39;12.53
50250;BME280;36133;42.522;27.456;2023-05-01T09:51:29;101673.19;;;35.25;13.86
50250;BME280;36133;42.522;27.456;2023-05-01T09:53:57;101499.66;;;34.72;12.88
50250;BME280;36133;42.522;27.456;2023-05-01T09:56:28;101458.41;;;33.37;13.97
50250;BME280;36133;42.522;27.456;2023-05-01T09:58:59;101592.53;;;35.05;13.35
50250;BME280;36133;42.522;27.456;2023-05-01T10:01:42;101313.56;;;32.86;13.95
50250;BME280;36133;42.522;27.456;2023-05-01T10:04:09;101506.88;;;35.92;12.61
50250;BME280;36133;42.522;27.456;2023-05-01T10:06:35;101548.41;;;35.40;12.50
50250;BME280;36133;42.522;27.456;2023-05-01T10:09:02;101245.94;;;35.07;12.33
50250;BME280;36133;42.522;27.456;2023-05-01T10:11:28;101527.34;;;34.30;13.60
50250;BME280;36133;42.522;27.456;2023-05-01T10:14:09;101314.88;;;36.54;11.59
50250;BME280;36133;42.522;27.456;2023-05-01T10:16:37;101269.28;;;34.52;12.55
50250;BME280;36133;42.522;27.456;2023-05-01T10:19:09;101253.69;;;35.10;12.72
50250;BME280;36133;42.522;27.456;2023-05-01T10:21:39;101610.00;;;36.72;12.48
50250;BME280;36133;42.522;27.456;2023-05-01T10:24:05;101675.50;;;36.51;12.85
50250;BME280;36133;42.522;27.456;2023-05-01T10:26:32;101317.81;;;35.92;11.80
50250;BME280;36133;42.522;27.456;2023-05-01T10:29:08;101537.31;;;39.06;10.77
50250;BME280;36133;42.522;27.456;2023-05-01T10:31:34;101541.56;;;36.80;12.25
50250;BME280;36133;42.522;27.456;2023-05-01T10:34:00;101528.09;;;33.25;14.38
50250;BME280;36133;42.522;27.456;2023-05-01T10:36:46;101241.72;;;31.57;14.38
50250;BME280;36133;42.522;27.456;2023-05-01T10:39:35;101527.78;;;33.97;13.53
50250;BME280;36133;42.522;27.456;2023-05-01T10:42:24;101480.25;;;31.46;14.73
50250;BME280;36133;42.522;27.456;2023-05-01T10:44:50;101415.22;;;32.45;14.22
50250;BME280;36133;42.522;27.456;2023-05-01T10:50:28;101248.34;;;31.47;14.30
50250;BME280;36133;42.522;27.456;2023-05-01T10:55:44;101662.22;;;37.23;12.50
50250;BME280;36133;42.522;27.456;2023-05-01T11:01:27;101664.34;;;38.04;11.48
50250;BME280;36133;42.522;27.456;2023-05-01T11:03:58;101230.44;;;33.35;12.94
50250;BME280;36133;42.522;27.456;2023-05-01T11:06:24;101612.84;;;38.56;11.72
50250;BME280;36133;42.522;27.456;2023-05-01T11:08:50;101490.13;;;36.79;11.87
50250;BME280;36133;42.522;27.456;2023-05-01T11:14:01;101532.75;;;35.98;11.95
50250;BME280;36133;42.522;27.456;2023-05-01T11:21:48;101667.44;;;35.13;12.82
50250;BME280;36133;42.522;27.456;2023-05-01T11:24:16;101667.78;;;36.39;12.46
50250;BME280;36133;42.522;27.456;2023-05-01T11:26:44;101222.91;;;36.55;10.60
50250;BME280;36133;42.522;27.456;2023-05-01T11:29:10;101597.75;;;35.41;12.40
50250;BME280;36133;42.522;27.456;2023-05-01T11:31:46;101636.69;;;36.65;12.35
50250;BME280;36133;42.522;27.456;2023-05-01T11:34:14;101654.19;;;34.61;13.04
50250;BME280;36133;42.522;27.456;2023-05-01T11:36:50;101253.63;;;34.04;12.50
50250;BME280;36133;42.522;27.456;2023-05-01T11:39:17;101243.00;;;32.89;13.03
50250;BME280;36133;42.522;27.456;2023-05-01T11:41:46;101631.28;;;36.60;12.22
50250;BME280;36133;42.522;27.456;2023-05-01T11:44:22;101209.69;;;33.36;13.03
50250;BME280;36133;42.522;27.456;2023-05-01T11:46:55;101510.13;;;39.29;10.46
50250;BME280;36133;42.522;27.456;2023-05-01T11:49:27;101402.75;;;33.36;13.67
50250;BME280;36133;42.522;27.456;2023-05-01T11:51:57;101239.97;;;36.25;11.81
50250;BME280;36133;42.522;27.456;2023-05-01T11:54:23;101496.44;;;35.93;12.39
50250;BME280;36133;42.522;27.456;2023-05-01T11:56:57;101500.28;;;36.09;12.21
50250;BME280;36133;42.522;27.456;2023-05-01T11:59:26;101343.19;;;35.03;12.42
50250;BME280;36133;42.522;27.456;2023-05-01T12:01:58;101497.69;;;35.74;12.41
50250;BME280;36133;42.522;27.456;2023-05-01T12:04:25;101521.03;;;37.33;12.04
50250;BME280;36133;42.522;27.456;2023-05-01T12:06:52;101589.72;;;37.20;11.99
50250;BME280;36133;42.522;27.456;2023-05-01T12:09:20;101500.72;;;38.01;11.45
50250;BME280;36133;42.522;27.456;2023-05-01T12:11:48;101537.47;;;36.98;12.03
50250;BME280;36133;42.522;27.456;2023-05-01T12:14:15;101257.53;;;34.67;12.12
50250;BME280;36133;42.522;27.456;2023-05-01T12:16:42;101524.94;;;37.77;11.81
50250;BME280;36133;42.522;27.456;2023-05-01T12:19:09;101449.75;;;36.84;11.60
50250;BME280;36133;42.522;27.456;2023-05-01T12:21:36;101373.38;;;35.65;11.93
50250;BME280;36133;42.522;27.456;2023-05-01T12:27:24;101183.16;;;31.21;14.07
50250;BME280;36133;42.522;27.456;2023-05-01T12:29:50;101461.44;;;33.67;13.97
50250;BME280;36133;42.522;27.456;2023-05-01T12:32:28;101553.25;;;34.96;13.40
50250;BME280;36133;42.522;27.456;2023-05-01T12:34:54;101224.31;;;33.76;13.07
50250;BME280;36133;42.522;27.456;2023-05-01T12:37:29;101281.25;;;32.80;12.97
50250;BME280;36133;42.522;27.456;2023-05-01T12:39:56;101507.69;;;32.57;14.34
50250;BME280;36133;42.522;27.456;2023-05-01T12:42:27;101590.16;;;34.37;13.23
50250;BME280;36133;42.522;27.456;2023-05-01T12:44:58;101213.44;;;32.57;13.51
50250;BME280;36133;42.522;27.456;2023-05-01T12:47:25;101468.16;;;31.64;14.73
50250;BME280;36133;42.522;27.456;2023-05-01T12:50:00;101227.28;;;33.36;13.56
50250;BME280;36133;42.522;27.456;2023-05-01T12:52:27;101333.00;;;35.49;11.71
50250;BME280;36133;42.522;27.456;2023-05-01T12:55:03;101660.16;;;34.86;13.48
50250;BME280;36133;42.522;27.456;2023-05-01T12:57:30;101647.97;;;34.99;13.22
50250;BME280;36133;42.522;27.456;2023-05-01T13:00:03;101501.94;;;34.35;13.53
50250;BME280;36133;42.522;27.456;2023-05-01T13:02:32;101197.50;;;33.32;12.77
50250;BME280;36133;42.522;27.456;2023-05-01T13:05:06;101478.19;;;33.49;13.05
50250;BME280;36133;42.522;27.456;2023-05-01T13:07:32;101317.97;;;32.56;13.47
50250;BME280;36133;42.522;27.456;2023-05-01T13:09:58;101551.75;;;34.38;12.67
50250;BME280;36133;42.522;27.456;2023-05-01T13:12:25;101603.50;;;30.83;14.68
50250;BME280;36133;42.522;27.456;2023-05-01T13:14:51;101351.81;;;30.96;14.06
50250;BME280;36133;42.522;27.456;2023-05-01T13:17:37;101264.63;;;30.36;14.29
50250;BME280;36133;42.522;27.456;2023-05-01T13:20:24;101185.19;;;30.52;14.24
50250;BME280;36133;42.522;27.456;2023-05-01T13:22:53;101085.63;;;29.75;14.13